createdAt,value
2022-12-12T00:01:45.164Z,99605.31
2022-12-12T00:04:33.614Z,99592.00
2022-12-12T00:07:22.114Z,99602.41
2022-12-12T00:10:10.728Z,99598.16
2022-12-12T00:12:59.191Z,99601.34
2022-12-12T00:15:47.897Z,99606.06
2022-12-12T00:18:38.280Z,99599.22
2022-12-12T00:21:28.524Z,99587.38
2022-12-12T00:24:17.058Z,99605.16
2022-12-12T00:27:05.612Z,99603.38
2022-12-12T00:29:54.407Z,99603.50
2022-12-12T00:32:42.921Z,99604.94
2022-12-12T00:35:32.750Z,99583.38
2022-12-12T00:38:23.472Z,99605.09
2022-12-12T00:41:12.185Z,99612.44
2022-12-12T00:44:00.713Z,99611.09
2022-12-12T00:46:49.227Z,99607.09
2022-12-12T00:49:37.745Z,99606.00
2022-12-12T00:52:27.654Z,99612.56
2022-12-12T00:55:16.165Z,99601.47
2022-12-12T00:58:04.671Z,99619.31
2022-12-12T01:00:53.623Z,99616.03
2022-12-12T01:03:43.017Z,99614.78
2022-12-12T01:06:31.905Z,99565.19
2022-12-12T01:09:21.793Z,99613.56
2022-12-12T01:12:10.259Z,99615.81
2022-12-12T01:14:58.754Z,99611.94
2022-12-12T01:17:47.208Z,99613.91
2022-12-12T01:20:35.690Z,99625.81
2022-12-12T01:23:24.222Z,99630.22
2022-12-12T01:26:16.375Z,99622.63
2022-12-12T01:29:04.999Z,99625.25
2022-12-12T01:31:53.989Z,99627.66
2022-12-12T01:34:42.437Z,99622.13
2022-12-12T01:37:30.910Z,99621.03
2022-12-12T01:40:21.280Z,99625.47
2022-12-12T01:43:13.021Z,99629.41
2022-12-12T01:46:39.659Z,99634.53
2022-12-12T01:49:28.384Z,99633.72
2022-12-12T01:52:19.654Z,99632.34
2022-12-12T01:55:12.501Z,99633.19
2022-12-12T01:58:01.266Z,99635.25
2022-12-12T02:00:51.255Z,99639.84
2022-12-12T02:03:40.278Z,99640.13
2022-12-12T02:06:30.217Z,99645.81
2022-12-12T02:09:20.070Z,99634.31
2022-12-12T02:12:08.758Z,99645.41
2022-12-12T02:14:57.244Z,99645.66
2022-12-12T02:18:03.254Z,99649.13
2022-12-12T02:21:08.311Z,99640.81
2022-12-12T02:24:19.436Z,99650.34
2022-12-12T02:27:36.924Z,99651.19
2022-12-12T02:30:26.129Z,99628.75
2022-12-12T02:33:22.886Z,99643.84
2022-12-12T02:36:16.075Z,99650.22
2022-12-12T02:39:09.761Z,99572.50
2022-12-12T02:42:00.652Z,99651.81
2022-12-12T02:44:54.816Z,99655.00
2022-12-12T02:47:46.822Z,99651.97
2022-12-12T02:50:37.297Z,99658.59
2022-12-12T02:53:25.896Z,99647.78
2022-12-12T02:56:47.010Z,99654.53
2022-12-12T02:59:39.120Z,99592.91
2022-12-12T03:03:18.440Z,99657.56
2022-12-12T03:06:50.141Z,99659.19
2022-12-12T03:09:52.577Z,99651.97
2022-12-12T03:12:45.300Z,99651.53
2022-12-12T03:15:41.054Z,99617.84
2022-12-12T03:18:33.699Z,99650.41
2022-12-12T03:21:26.508Z,99647.31
2022-12-12T03:24:21.614Z,99652.44
2022-12-12T03:27:11.820Z,99659.78
2022-12-12T03:30:03.486Z,99625.88
2022-12-12T03:32:56.438Z,99656.06
2022-12-12T03:35:47.669Z,99655.19
2022-12-12T03:38:40.053Z,99656.97
2022-12-12T03:41:31.969Z,99656.44
2022-12-12T03:44:23.879Z,99653.69
2022-12-12T03:47:14.802Z,99653.72
2022-12-12T03:50:05.833Z,99659.34
2022-12-12T03:52:58.539Z,99657.94
2022-12-12T03:55:51.401Z,99646.88
2022-12-12T03:58:42.426Z,99637.06
2022-12-12T04:01:36.663Z,99622.47
2022-12-12T04:04:29.949Z,99652.06
2022-12-12T04:07:21.752Z,99488.34
2022-12-12T04:10:28.108Z,99630.84
2022-12-12T04:13:32.061Z,99664.03
2022-12-12T04:16:25.257Z,99658.03
2022-12-12T04:19:36.690Z,99661.59
2022-12-12T04:22:46.234Z,99659.94
2022-12-12T04:26:04.510Z,99663.53
2022-12-12T04:28:59.323Z,99659.22
2022-12-12T04:31:50.760Z,99649.91
2022-12-12T04:34:42.374Z,99671.91
2022-12-12T04:37:33.945Z,99677.84
2022-12-12T04:40:27.392Z,99677.03
2022-12-12T04:43:18.397Z,99680.00
2022-12-12T04:46:10.280Z,99665.47
2022-12-12T04:49:01.218Z,99549.78
2022-12-12T04:51:51.838Z,99646.47
2022-12-12T04:54:43.801Z,99661.91
2022-12-12T04:57:35.444Z,99647.97
2022-12-12T05:00:24.901Z,99671.84
2022-12-12T05:03:28.698Z,99670.34
2022-12-12T05:06:20.095Z,99632.69
2022-12-12T05:09:08.782Z,99674.19
2022-12-12T05:11:57.270Z,99669.09
2022-12-12T05:14:45.719Z,99672.81
2022-12-12T05:17:38.839Z,99682.66
2022-12-12T05:20:28.710Z,99688.16
2022-12-12T05:23:17.408Z,99685.19
2022-12-12T05:26:08.141Z,99676.38
2022-12-12T05:29:01.030Z,99692.03
2022-12-12T05:31:52.529Z,99690.81
2022-12-12T05:34:40.958Z,99693.56
2022-12-12T05:37:30.787Z,99702.66
2022-12-12T05:40:19.908Z,99684.34
2022-12-12T05:43:08.516Z,99705.75
2022-12-12T05:45:57.047Z,99702.94
2022-12-12T05:48:50.347Z,99701.63
2022-12-12T05:51:38.821Z,99706.19
2022-12-12T05:54:28.731Z,99712.88
2022-12-12T05:57:18.817Z,99719.44
2022-12-12T06:00:08.796Z,99694.13
2022-12-12T06:02:57.395Z,99724.84
2022-12-12T06:05:45.967Z,99724.47
2022-12-12T06:08:34.458Z,99716.84
2022-12-12T06:11:24.350Z,99722.47
2022-12-12T06:14:12.836Z,99730.44
2022-12-12T06:17:01.304Z,99724.84
2022-12-12T06:19:49.945Z,99720.69
2022-12-12T06:22:38.433Z,99720.81
2022-12-12T06:25:27.122Z,99730.06
2022-12-12T06:28:16.931Z,99725.53
2022-12-12T06:31:11.346Z,99728.03
2022-12-12T06:34:00.432Z,99738.50
2022-12-12T06:36:48.951Z,99727.84
2022-12-12T06:39:37.902Z,99725.75
2022-12-12T06:42:26.415Z,99731.00
2022-12-12T06:45:16.512Z,99725.34
2022-12-12T06:48:05.451Z,99733.81
2022-12-12T06:50:53.931Z,99724.53
2022-12-12T06:53:42.669Z,99730.22
2022-12-12T06:56:31.261Z,99745.22
2022-12-12T06:59:19.776Z,99741.78
2022-12-12T07:02:10.727Z,99749.75
2022-12-12T07:04:59.422Z,99745.22
2022-12-12T07:07:47.946Z,99756.72
2022-12-12T07:10:36.702Z,99756.41
2022-12-12T07:13:25.151Z,99757.91
2022-12-12T07:16:14.264Z,99765.69
2022-12-12T07:19:04.350Z,99758.19
2022-12-12T07:21:52.917Z,99768.66
2022-12-12T07:24:41.351Z,99774.59
2022-12-12T07:27:29.819Z,99766.41
2022-12-12T07:30:18.515Z,99779.44
2022-12-12T07:33:07.003Z,99769.25
2022-12-12T07:36:00.384Z,99775.34
2022-12-12T07:38:48.910Z,99768.59
2022-12-12T07:41:37.527Z,99749.09
2022-12-12T07:44:26.117Z,99744.81
2022-12-12T07:47:14.567Z,99779.72
2022-12-12T07:50:03.118Z,99771.22
2022-12-12T07:52:52.956Z,99783.97
2022-12-12T07:55:41.812Z,99767.88
2022-12-12T07:58:30.237Z,99769.28
2022-12-12T08:01:20.927Z,99783.69
2022-12-12T08:04:09.405Z,99794.31
2022-12-12T08:07:04.049Z,99800.22
2022-12-12T08:09:56.766Z,99800.47
2022-12-12T08:12:45.365Z,99805.47
2022-12-12T08:15:33.865Z,99788.88
2022-12-12T08:18:22.584Z,99809.25
2022-12-12T08:21:12.086Z,99815.38
2022-12-12T08:24:02.180Z,99812.38
2022-12-12T08:26:52.124Z,99821.09
2022-12-12T08:29:40.710Z,99825.16
2022-12-12T08:32:30.033Z,99821.00
2022-12-12T08:35:18.600Z,99833.09
2022-12-12T08:38:07.129Z,99827.13
2022-12-12T08:40:55.729Z,99825.34
2022-12-12T08:43:45.876Z,99827.47
2022-12-12T08:46:34.614Z,99831.16
2022-12-12T08:49:23.204Z,99825.75
2022-12-12T08:52:12.752Z,99828.09
2022-12-12T08:55:01.217Z,99833.13
2022-12-12T08:57:49.738Z,99832.25
2022-12-12T09:00:39.563Z,99836.59
2022-12-12T09:03:29.672Z,99839.75
2022-12-12T09:06:18.599Z,99667.81
2022-12-12T09:09:07.155Z,99842.34
2022-12-12T09:11:55.633Z,99845.97
2022-12-12T09:14:44.136Z,99854.13
2022-12-12T09:17:34.056Z,99853.47
2022-12-12T09:20:22.522Z,99854.09
2022-12-12T09:23:11.091Z,99863.06
2022-12-12T09:25:59.925Z,99867.22
2022-12-12T09:28:48.426Z,99866.44
2022-12-12T09:31:36.987Z,99867.84
2022-12-12T09:34:26.803Z,99874.19
2022-12-12T09:37:15.367Z,99852.47
2022-12-12T09:40:04.523Z,99851.50
2022-12-12T09:42:53.169Z,99863.03
2022-12-12T09:45:41.742Z,99859.16
2022-12-12T09:48:36.493Z,99864.75
2022-12-12T09:51:26.376Z,99860.22
2022-12-12T09:54:16.644Z,99824.72
2022-12-12T09:57:15.605Z,99853.88
2022-12-12T10:00:08.296Z,99850.59
2022-12-12T10:03:07.798Z,99852.09
2022-12-12T10:06:28.534Z,99849.94
2022-12-12T10:09:28.506Z,99714.03
2022-12-12T10:12:18.069Z,99845.34
2022-12-12T10:15:09.176Z,99739.94
2022-12-12T10:18:02.276Z,99842.84
2022-12-12T10:20:53.140Z,99838.09
2022-12-12T10:23:46.840Z,99826.75
2022-12-12T10:26:36.788Z,99837.84
2022-12-12T10:29:27.321Z,99818.56
2022-12-12T10:32:25.182Z,99837.84
2022-12-12T10:35:24.514Z,99830.06
2022-12-12T10:38:28.443Z,99826.16
2022-12-12T10:41:23.004Z,99833.94
2022-12-12T10:44:23.528Z,99834.22
2022-12-12T10:47:12.997Z,99838.91
2022-12-12T10:50:14.869Z,99798.88
2022-12-12T10:53:04.328Z,99843.63
2022-12-12T10:55:55.070Z,99835.16
2022-12-12T10:58:45.521Z,99663.53
2022-12-12T11:04:46.142Z,99820.34
2022-12-12T11:07:38.700Z,99827.34
2022-12-12T11:10:33.747Z,99815.00
2022-12-12T11:13:22.957Z,99831.53
2022-12-12T11:16:15.397Z,99829.16
2022-12-12T11:19:07.787Z,99763.00
2022-12-12T11:21:56.666Z,99824.69
2022-12-12T11:24:47.256Z,99834.16
2022-12-12T11:27:38.648Z,99817.84
2022-12-12T11:30:34.781Z,99833.72
2022-12-12T11:33:25.048Z,99826.91
2022-12-12T11:36:17.082Z,99798.69
2022-12-12T11:39:15.765Z,99825.09
2022-12-12T11:42:05.937Z,99819.25
2022-12-12T11:45:00.092Z,99805.63
2022-12-12T11:47:49.582Z,99812.94
2022-12-12T11:50:45.839Z,99815.66
2022-12-12T11:53:38.287Z,99819.53
2022-12-12T11:56:34.837Z,99818.94
2022-12-12T11:59:50.018Z,99800.63
2022-12-12T12:03:06.316Z,99808.31
2022-12-12T12:06:08.848Z,99791.13
2022-12-12T12:09:16.662Z,99806.81
2022-12-12T12:12:09.968Z,99795.47
2022-12-12T12:15:31.296Z,99791.47
2022-12-12T12:18:32.622Z,99795.56
2022-12-12T12:21:30.726Z,99793.38
2022-12-12T12:24:46.029Z,99787.94
2022-12-12T12:27:38.874Z,99787.09
2022-12-12T12:30:32.131Z,99795.09
2022-12-12T12:33:38.398Z,99783.94
2022-12-12T12:36:30.901Z,99773.69
2022-12-12T12:39:32.733Z,99767.41
2022-12-12T12:42:28.887Z,99783.66
2022-12-12T12:45:20.218Z,99779.00
2022-12-12T12:48:14.672Z,99749.84
2022-12-12T12:51:06.613Z,99750.28
2022-12-12T12:54:00.935Z,99769.13
2022-12-12T12:56:55.039Z,99770.63
2022-12-12T12:59:46.899Z,99773.81
2022-12-12T13:02:42.480Z,99772.66
2022-12-12T13:05:35.887Z,99763.69
2022-12-12T13:08:28.016Z,99754.88
2022-12-12T13:11:20.453Z,99761.31
2022-12-12T13:14:15.670Z,99758.69
2022-12-12T13:17:07.354Z,99752.41
2022-12-12T13:19:57.558Z,99751.28
2022-12-12T13:22:54.019Z,99738.69
2022-12-12T13:25:46.742Z,99738.22
2022-12-12T13:28:38.317Z,99739.97
2022-12-12T13:31:39.875Z,99713.94
2022-12-12T13:34:29.199Z,99716.59
2022-12-12T13:37:19.243Z,99738.19
2022-12-12T13:40:09.361Z,99734.59
2022-12-12T13:43:05.685Z,99734.28
2022-12-12T13:45:57.932Z,99737.31
2022-12-12T13:48:48.682Z,99732.94
2022-12-12T13:51:40.736Z,99700.53
2022-12-12T13:54:45.521Z,99718.44
2022-12-12T13:57:34.149Z,99721.25
2022-12-12T14:00:23.736Z,99720.03
2022-12-12T14:03:27.222Z,99722.19
2022-12-12T14:06:20.539Z,99720.16
2022-12-12T14:09:21.399Z,99730.84
2022-12-12T14:12:18.138Z,99736.88
2022-12-12T14:15:08.814Z,99733.78
2022-12-12T14:17:59.822Z,99731.91
2022-12-12T14:20:56.278Z,99737.88
2022-12-12T14:23:48.102Z,99742.22
2022-12-12T14:26:50.856Z,99736.28
2022-12-12T14:29:43.818Z,99738.09
2022-12-12T14:32:42.833Z,99710.06
2022-12-12T14:35:35.956Z,99717.34
2022-12-12T14:38:31.440Z,99727.97
2022-12-12T14:41:26.633Z,99729.41
2022-12-12T14:44:37.191Z,99565.44
2022-12-12T14:47:27.526Z,99717.56
2022-12-12T14:50:18.647Z,99687.41
2022-12-12T14:53:16.358Z,99710.03
2022-12-12T14:56:09.564Z,99698.94
2022-12-12T14:59:02.740Z,99669.72
2022-12-12T15:01:52.993Z,99693.06
2022-12-12T15:04:41.801Z,99702.34
2022-12-12T15:07:31.781Z,99704.31
2022-12-12T15:10:24.950Z,99719.56
2022-12-12T15:13:23.923Z,99718.47
2022-12-12T15:16:13.885Z,99605.84
2022-12-12T15:19:03.277Z,99728.41
2022-12-12T15:21:52.029Z,99734.44
2022-12-12T15:24:41.168Z,99739.63
2022-12-12T15:27:31.760Z,99741.22
2022-12-12T15:30:25.779Z,99691.69
2022-12-12T15:33:19.296Z,99728.50
2022-12-12T15:36:18.165Z,99697.19
2022-12-12T15:39:15.886Z,99716.69
2022-12-12T15:42:05.256Z,99727.09
2022-12-12T15:44:53.885Z,99733.22
2022-12-12T15:47:43.441Z,99689.94
2022-12-12T15:50:39.715Z,99719.25
2022-12-12T15:53:30.195Z,99716.06
2022-12-12T15:56:25.562Z,99721.63
2022-12-12T15:59:17.297Z,99715.97
2022-12-12T16:02:24.347Z,99577.25
2022-12-12T16:05:31.956Z,99714.19
2022-12-12T16:08:46.321Z,99712.56
2022-12-12T16:11:40.970Z,99732.41
2022-12-12T16:14:40.590Z,99716.59
2022-12-12T16:17:30.159Z,99713.59
2022-12-12T16:20:27.254Z,99718.44
2022-12-12T16:23:28.807Z,99715.09
2022-12-12T16:26:18.761Z,99718.19
2022-12-12T16:29:08.708Z,99727.88
2022-12-12T16:31:58.563Z,99710.00
2022-12-12T16:34:49.332Z,99741.59
2022-12-12T16:37:38.927Z,99741.59
2022-12-12T16:40:28.163Z,99727.88
2022-12-12T16:43:19.332Z,99753.78
2022-12-12T16:46:10.568Z,99745.63
2022-12-12T16:49:04.548Z,99743.41
2022-12-12T16:51:53.687Z,99746.16
2022-12-12T16:54:42.325Z,99749.22
2022-12-12T16:57:30.835Z,99747.69
2022-12-12T17:00:21.302Z,99739.22
2022-12-12T17:03:13.899Z,99709.44
2022-12-12T17:06:02.577Z,99750.44
2022-12-12T17:08:51.145Z,99750.97
2022-12-12T17:11:39.797Z,99746.91
2022-12-12T17:14:28.314Z,99745.69
2022-12-12T17:17:20.660Z,99734.22
2022-12-12T17:20:09.609Z,99722.88
2022-12-12T17:22:58.171Z,99731.03
2022-12-12T17:25:47.386Z,99747.53
2022-12-12T17:28:36.723Z,99743.03
2022-12-12T17:31:25.393Z,99733.47
2022-12-12T17:34:15.368Z,99738.31
2022-12-12T17:37:03.862Z,99706.75
2022-12-12T17:39:52.457Z,99739.31
2022-12-12T17:42:41.014Z,99735.84
2022-12-12T17:45:29.662Z,99737.19
2022-12-12T17:48:18.292Z,99727.47
2022-12-12T17:51:09.350Z,99717.19
2022-12-12T17:54:00.144Z,99733.66
2022-12-12T17:56:48.673Z,99733.28
2022-12-12T17:59:37.384Z,99742.28
2022-12-12T18:02:27.070Z,99722.06
2022-12-12T18:05:19.688Z,99731.75
2022-12-12T18:08:09.660Z,99729.19
2022-12-12T18:10:58.623Z,99728.16
2022-12-12T18:13:48.945Z,99733.53
2022-12-12T18:16:38.285Z,99717.25
2022-12-12T18:19:29.110Z,99691.25
2022-12-12T18:22:17.629Z,99718.13
2022-12-12T18:25:08.969Z,99737.88
2022-12-12T18:27:58.784Z,99735.22
2022-12-12T18:30:50.568Z,99707.75
2022-12-12T18:33:39.433Z,99739.75
2022-12-12T18:36:30.009Z,99728.38
2022-12-12T18:39:18.681Z,99733.88
2022-12-12T18:42:08.949Z,99727.66
2022-12-12T18:44:57.646Z,99738.88
2022-12-12T18:47:47.187Z,99739.38
2022-12-12T18:50:35.713Z,99688.69
2022-12-12T18:53:24.229Z,99727.84
2022-12-12T18:56:15.071Z,99720.81
2022-12-12T18:59:05.003Z,99441.16
2022-12-12T19:01:53.781Z,99734.75
2022-12-12T19:04:44.254Z,99726.53
2022-12-12T19:07:32.870Z,99724.38
2022-12-12T19:10:21.454Z,99725.44
2022-12-12T19:13:10.006Z,99724.56
2022-12-12T19:16:04.461Z,99732.69
2022-12-12T19:18:53.104Z,99728.88
2022-12-12T19:21:42.692Z,99739.22
2022-12-12T19:24:31.183Z,99702.28
2022-12-12T19:27:19.660Z,99733.91
2022-12-12T19:30:09.286Z,99727.13
2022-12-12T19:32:59.404Z,99723.66
2022-12-12T19:35:47.886Z,99732.63
2022-12-12T19:38:36.453Z,99723.31
2022-12-12T19:41:25.488Z,99719.81
2022-12-12T19:44:14.801Z,99723.72
2022-12-12T19:47:03.389Z,99721.03
2022-12-12T19:49:53.286Z,99720.19
2022-12-12T19:52:41.930Z,99721.53
2022-12-12T19:55:30.481Z,99703.88
2022-12-12T19:58:19.067Z,99719.13
2022-12-12T20:01:09.634Z,99722.88
2022-12-12T20:04:01.082Z,99724.78
2022-12-12T20:06:51.915Z,99714.28
2022-12-12T20:09:40.747Z,99723.84
2022-12-12T20:12:29.216Z,99726.34
2022-12-12T20:15:18.019Z,99715.00
2022-12-12T20:18:07.968Z,99712.63
2022-12-12T20:21:02.003Z,99724.72
2022-12-12T20:23:53.020Z,99724.22
2022-12-12T20:26:42.073Z,99720.41
2022-12-12T20:29:30.672Z,99715.38
2022-12-12T20:32:19.487Z,99721.25
2022-12-12T20:35:08.714Z,99699.66
2022-12-12T20:37:57.217Z,99716.13
2022-12-12T20:40:49.127Z,99716.59
2022-12-12T20:43:37.667Z,99707.41
2022-12-12T20:46:29.616Z,99713.75
2022-12-12T20:49:22.145Z,99708.50
2022-12-12T20:52:10.748Z,99721.69
2022-12-12T20:54:59.391Z,99723.69
2022-12-12T20:57:49.269Z,99715.28
2022-12-12T21:00:39.092Z,99715.78
2022-12-12T21:03:27.874Z,99715.78
2022-12-12T21:06:18.782Z,99726.97
2022-12-12T21:09:09.354Z,99719.47
2022-12-12T21:11:59.181Z,99718.78
2022-12-12T21:14:49.292Z,99710.44
2022-12-12T21:17:37.821Z,99704.59
2022-12-12T21:20:26.331Z,99695.69
2022-12-12T21:23:14.802Z,99700.44
2022-12-12T21:26:05.326Z,99663.22
2022-12-12T21:28:54.273Z,99694.38
2022-12-12T21:31:50.796Z,99660.72
2022-12-12T21:34:41.476Z,99686.41
2022-12-12T21:37:30.044Z,99683.56
2022-12-12T21:40:18.765Z,99683.28
2022-12-12T21:43:07.397Z,99679.06
2022-12-12T21:45:55.892Z,99688.69
2022-12-12T21:48:45.780Z,99687.38
2022-12-12T21:51:34.320Z,99660.97
2022-12-12T21:54:23.590Z,99656.09
2022-12-12T21:57:12.138Z,99675.13
2022-12-12T22:00:00.684Z,99675.97
2022-12-12T22:02:50.364Z,99670.25
2022-12-12T22:05:40.332Z,99678.81
2022-12-12T22:08:28.961Z,99681.88
2022-12-12T22:11:40.485Z,99679.88
2022-12-12T22:14:27.215Z,99678.53
2022-12-12T22:17:15.725Z,99680.06
2022-12-12T22:20:04.596Z,99630.59
2022-12-12T22:22:54.668Z,99651.91
2022-12-12T22:25:43.174Z,99653.59
2022-12-12T22:28:31.642Z,99675.47
2022-12-12T22:31:21.234Z,99670.72
2022-12-12T22:34:13.500Z,99678.56
2022-12-12T22:37:02.051Z,99673.66
2022-12-12T22:39:51.907Z,99668.78
2022-12-12T22:42:40.370Z,99675.44
2022-12-12T22:45:28.901Z,99671.47
2022-12-12T22:48:17.526Z,99679.94
2022-12-12T22:51:15.508Z,99664.41
2022-12-12T22:54:05.762Z,99659.53
2022-12-12T22:56:55.693Z,99650.88
2022-12-12T22:59:44.208Z,99657.47
2022-12-12T23:02:32.715Z,99660.19
2022-12-12T23:05:23.606Z,99656.50
2022-12-12T23:08:12.167Z,99650.44
2022-12-12T23:11:07.165Z,99642.59
2022-12-12T23:14:00.278Z,99600.41
2022-12-12T23:16:49.485Z,99630.25
2022-12-12T23:19:38.147Z,99646.63
2022-12-12T23:22:26.893Z,99643.31
2022-12-12T23:25:15.730Z,99630.00
2022-12-12T23:28:07.115Z,99641.16
2022-12-12T23:31:00.530Z,99622.88
2022-12-12T23:33:49.634Z,99631.63
2022-12-12T23:36:38.214Z,99632.56
2022-12-12T23:39:27.751Z,99632.00
2022-12-12T23:42:16.181Z,99627.63
2022-12-12T23:45:05.085Z,99588.47
2022-12-12T23:47:55.273Z,99621.03
2022-12-12T23:50:43.710Z,99613.59
2022-12-12T23:53:32.781Z,99614.75
2022-12-12T23:56:21.249Z,99603.56
2022-12-12T23:59:16.885Z,99599.91
